sensor_id;sensor_type;location;lat;lon;timestamp;pressure;altitude;pressure_sealevel;temperature;humidity
21431;BME280;10876;49.038;10.608;2023-05-02T01:07:14;99302.47;;;5.80;100.00
21431;BME280;10876;49.038;10.608;2023-05-02T01:09:51;99304.03;;;5.66;100.00
21431;BME280;10876;49.038;10.608;2023-05-02T01:12:26;99314.69;;;5.73;100.00
21431;BME280;10876;49.038;10.608;2023-05-02T01:14:54;99318.78;;;5.75;100.00
21431;BME280;10876;49.038;10.608;2023-05-02T01:17:25;99330.06;;;5.57;100.00
21431;BME280;10876;49.038;10.608;2023-05-02T01:19:55;99311.97;;;5.30;100.00
21431;BME280;10876;49.038;10.608;2023-05-02T01:22:26;99317.38;;;5.25;100.00
21431;BME280;10876;49.038;10.608;2023-05-02T01:25:01;99340.63;;;5.48;100.00
21431;BME280;10876;49.038;10.608;2023-05-02T01:27:38;99341.69;;;5.47;100.00
21431;BME280;10876;49.038;10.608;2023-05-02T01:30:10;99363.81;;;5.66;100.00
21431;BME280;10876;49.038;10.608;2023-05-02T01:32:40;99376.97;;;5.84;100.00
21431;BME280;10876;49.038;10.608;2023-05-02T01:35:10;99373.63;;;5.72;100.00
21431;BME280;10876;49.038;10.608;2023-05-02T01:37:38;99390.81;;;5.83;100.00
21431;BME280;10876;49.038;10.608;2023-05-02T01:40:08;99377.59;;;5.54;100.00
21431;BME280;10876;49.038;10.608;2023-05-02T01:42:36;99363.69;;;5.46;100.00
21431;BME280;10876;49.038;10.608;2023-05-02T01:45:05;99380.75;;;5.36;100.00
21431;BME280;10876;49.038;10.608;2023-05-02T01:47:35;99372.84;;;5.34;100.00
21431;BME280;10876;49.038;10.608;2023-05-02T01:50:05;99376.59;;;5.28;100.00
21431;BME280;10876;49.038;10.608;2023-05-02T01:52:34;99381.78;;;5.35;100.00
21431;BME280;10876;49.038;10.608;2023-05-02T01:55:04;99377.88;;;5.20;100.00
21431;BME280;10876;49.038;10.608;2023-05-02T01:57:34;99376.47;;;5.13;100.00
21431;BME280;10876;49.038;10.608;2023-05-02T02:00:03;99368.91;;;4.88;100.00
21431;BME280;10876;49.038;10.608;2023-05-02T02:02:31;99375.44;;;4.87;100.00
21431;BME280;10876;49.038;10.608;2023-05-02T02:05:04;99382.78;;;4.91;100.00
21431;BME280;10876;49.038;10.608;2023-05-02T02:07:31;99389.53;;;4.84;100.00
21431;BME280;10876;49.038;10.608;2023-05-02T02:09:58;99396.97;;;4.99;100.00
21431;BME280;10876;49.038;10.608;2023-05-02T02:12:27;99407.06;;;5.03;100.00
21431;BME280;10876;49.038;10.608;2023-05-02T02:15:02;99417.03;;;4.97;100.00
21431;BME280;10876;49.038;10.608;2023-05-02T02:17:35;99430.09;;;5.01;100.00
21431;BME280;10876;49.038;10.608;2023-05-02T02:20:08;99436.63;;;5.00;100.00
21431;BME280;10876;49.038;10.608;2023-05-02T02:22:37;99429.56;;;4.99;100.00
21431;BME280;10876;49.038;10.608;2023-05-02T02:25:07;99429.44;;;4.88;100.00
21431;BME280;10876;49.038;10.608;2023-05-02T02:27:36;99443.38;;;4.97;100.00
21431;BME280;10876;49.038;10.608;2023-05-02T02:30:04;99451.88;;;5.06;100.00
21431;BME280;10876;49.038;10.608;2023-05-02T02:32:31;99451.88;;;5.06;100.00
21431;BME280;10876;49.038;10.608;2023-05-02T02:34:58;99457.09;;;4.85;100.00
21431;BME280;10876;49.038;10.608;2023-05-02T02:37:30;99463.31;;;4.59;100.00
21431;BME280;10876;49.038;10.608;2023-05-02T02:40:03;99468.72;;;4.59;100.00
21431;BME280;10876;49.038;10.608;2023-05-02T02:42:35;99474.25;;;4.69;100.00
21431;BME280;10876;49.038;10.608;2023-05-02T02:45:14;99484.81;;;4.65;100.00
21431;BME280;10876;49.038;10.608;2023-05-02T02:47:48;99493.91;;;4.76;100.00
21431;BME280;10876;49.038;10.608;2023-05-02T02:50:26;99497.94;;;4.73;100.00
21431;BME280;10876;49.038;10.608;2023-05-02T02:53:00;99507.16;;;4.72;100.00
21431;BME280;10876;49.038;10.608;2023-05-02T02:55:35;99507.97;;;4.73;100.00
21431;BME280;10876;49.038;10.608;2023-05-02T02:58:20;99511.13;;;4.65;100.00
21431;BME280;10876;49.038;10.608;2023-05-02T03:00:53;99517.25;;;4.55;100.00
21431;BME280;10876;49.038;10.608;2023-05-02T03:03:21;99525.88;;;4.52;100.00
21431;BME280;10876;49.038;10.608;2023-05-02T03:05:54;99530.69;;;4.67;100.00
21431;BME280;10876;49.038;10.608;2023-05-02T03:08:23;99536.78;;;4.57;100.00
21431;BME280;10876;49.038;10.608;2023-05-02T03:10:50;99536.47;;;4.54;100.00
21431;BME280;10876;49.038;10.608;2023-05-02T03:13:17;99540.78;;;4.49;100.00
21431;BME280;10876;49.038;10.608;2023-05-02T03:16:11;99561.28;;;4.62;100.00
21431;BME280;10876;49.038;10.608;2023-05-02T03:18:44;99557.09;;;4.55;100.00
21431;BME280;10876;49.038;10.608;2023-05-02T03:21:10;99552.06;;;4.63;100.00
21431;BME280;10876;49.038;10.608;2023-05-02T03:23:39;99557.06;;;4.49;100.00
21431;BME280;10876;49.038;10.608;2023-05-02T03:26:06;99567.41;;;4.53;100.00
21431;BME280;10876;49.038;10.608;2023-05-02T03:28:33;99570.50;;;4.61;100.00
21431;BME280;10876;49.038;10.608;2023-05-02T03:31:00;99584.31;;;4.60;100.00
21431;BME280;10876;49.038;10.608;2023-05-02T03:33:27;99594.53;;;4.74;100.00
21431;BME280;10876;49.038;10.608;2023-05-02T03:35:53;99588.69;;;4.61;100.00
21431;BME280;10876;49.038;10.608;2023-05-02T03:38:20;99586.59;;;4.68;100.00
21431;BME280;10876;49.038;10.608;2023-05-02T03:40:49;99609.50;;;4.77;100.00
21431;BME280;10876;49.038;10.608;2023-05-02T03:43:16;99610.72;;;4.86;100.00
21431;BME280;10876;49.038;10.608;2023-05-02T03:45:43;99631.47;;;4.97;100.00
21431;BME280;10876;49.038;10.608;2023-05-02T03:48:09;99632.22;;;5.10;100.00
21431;BME280;10876;49.038;10.608;2023-05-02T03:50:36;99643.69;;;5.17;100.00
21431;BME280;10876;49.038;10.608;2023-05-02T03:53:03;99660.22;;;5.37;100.00
21431;BME280;10876;49.038;10.608;2023-05-02T03:55:30;99658.59;;;5.36;100.00
21431;BME280;10876;49.038;10.608;2023-05-02T03:57:59;99645.47;;;5.28;100.00
21431;BME280;10876;49.038;10.608;2023-05-02T04:00:25;99650.81;;;5.23;100.00
21431;BME280;10876;49.038;10.608;2023-05-02T04:02:52;99651.97;;;5.27;100.00
21431;BME280;10876;49.038;10.608;2023-05-02T04:05:19;99660.75;;;5.34;100.00
21431;BME280;10876;49.038;10.608;2023-05-02T04:07:46;99667.44;;;5.49;100.00
21431;BME280;10876;49.038;10.608;2023-05-02T04:10:13;99667.13;;;5.45;100.00
21431;BME280;10876;49.038;10.608;2023-05-02T04:12:42;99682.69;;;5.50;100.00
21431;BME280;10876;49.038;10.608;2023-05-02T04:15:11;99688.16;;;5.55;100.00
21431;BME280;10876;49.038;10.608;2023-05-02T04:17:38;99682.72;;;5.55;100.00
21431;BME280;10876;49.038;10.608;2023-05-02T04:20:06;99690.38;;;5.58;100.00
21431;BME280;10876;49.038;10.608;2023-05-02T04:22:33;99709.28;;;5.70;100.00
21431;BME280;10876;49.038;10.608;2023-05-02T04:25:00;99713.94;;;5.74;100.00
21431;BME280;10876;49.038;10.608;2023-05-02T04:27:27;99727.38;;;5.86;100.00
21431;BME280;10876;49.038;10.608;2023-05-02T04:29:54;99736.84;;;5.78;100.00
21431;BME280;10876;49.038;10.608;2023-05-02T04:32:23;99747.28;;;5.92;100.00
21431;BME280;10876;49.038;10.608;2023-05-02T04:34:50;99752.94;;;5.85;100.00
21431;BME280;10876;49.038;10.608;2023-05-02T04:37:17;99758.88;;;5.82;100.00
21431;BME280;10876;49.038;10.608;2023-05-02T04:39:44;99747.00;;;5.66;100.00
21431;BME280;10876;49.038;10.608;2023-05-02T04:42:11;99756.41;;;5.80;100.00
21431;BME280;10876;49.038;10.608;2023-05-02T04:44:38;99759.31;;;5.74;100.00
21431;BME280;10876;49.038;10.608;2023-05-02T04:47:05;99769.56;;;5.88;100.00
21431;BME280;10876;49.038;10.608;2023-05-02T04:49:33;99779.91;;;5.92;100.00
21431;BME280;10876;49.038;10.608;2023-05-02T04:52:01;99781.59;;;5.93;100.00
21431;BME280;10876;49.038;10.608;2023-05-02T04:54:28;99790.97;;;6.02;100.00
21431;BME280;10876;49.038;10.608;2023-05-02T04:56:54;99801.31;;;6.05;100.00
21431;BME280;10876;49.038;10.608;2023-05-02T04:59:21;99811.69;;;6.08;100.00
21431;BME280;10876;49.038;10.608;2023-05-02T05:01:49;99829.28;;;6.22;100.00
21431;BME280;10876;49.038;10.608;2023-05-02T05:04:16;99845.75;;;6.38;100.00
21431;BME280;10876;49.038;10.608;2023-05-02T05:06:45;99849.34;;;6.43;100.00
21431;BME280;10876;49.038;10.608;2023-05-02T05:09:12;99868.53;;;6.53;100.00
21431;BME280;10876;49.038;10.608;2023-05-02T05:11:39;99870.00;;;6.61;100.00
21431;BME280;10876;49.038;10.608;2023-05-02T05:14:07;99893.19;;;6.69;100.00
21431;BME280;10876;49.038;10.608;2023-05-02T05:16:34;99901.19;;;6.81;100.00
21431;BME280;10876;49.038;10.608;2023-05-02T05:19:02;99916.53;;;6.87;100.00
21431;BME280;10876;49.038;10.608;2023-05-02T05:21:29;99931.69;;;7.05;100.00
21431;BME280;10876;49.038;10.608;2023-05-02T05:23:57;99933.59;;;7.04;100.00
21431;BME280;10876;49.038;10.608;2023-05-02T05:26:24;99938.06;;;7.15;100.00
21431;BME280;10876;49.038;10.608;2023-05-02T05:28:51;99942.50;;;7.27;100.00
21431;BME280;10876;49.038;10.608;2023-05-02T05:31:18;99953.50;;;7.37;100.00
21431;BME280;10876;49.038;10.608;2023-05-02T05:33:46;99959.94;;;7.53;100.00
21431;BME280;10876;49.038;10.608;2023-05-02T05:36:13;99961.88;;;7.57;100.00
21431;BME280;10876;49.038;10.608;2023-05-02T05:38:40;99965.06;;;7.81;100.00
21431;BME280;10876;49.038;10.608;2023-05-02T05:41:09;99965.31;;;7.80;100.00
21431;BME280;10876;49.038;10.608;2023-05-02T05:43:37;99962.16;;;7.93;100.00
21431;BME280;10876;49.038;10.608;2023-05-02T05:46:04;99963.88;;;8.04;100.00
21431;BME280;10876;49.038;10.608;2023-05-02T05:48:31;99960.63;;;8.12;100.00
21431;BME280;10876;49.038;10.608;2023-05-02T05:51:02;99960.16;;;8.26;100.00
21431;BME280;10876;49.038;10.608;2023-05-02T05:53:29;99959.41;;;8.35;100.00
21431;BME280;10876;49.038;10.608;2023-05-02T05:55:56;99943.38;;;8.44;100.00
21431;BME280;10876;49.038;10.608;2023-05-02T05:58:25;99937.91;;;8.49;100.00
21431;BME280;10876;49.038;10.608;2023-05-02T06:00:52;99939.06;;;8.64;100.00
21431;BME280;10876;49.038;10.608;2023-05-02T06:03:19;99932.53;;;8.75;100.00
21431;BME280;10876;49.038;10.608;2023-05-02T06:05:46;99934.19;;;8.81;100.00
21431;BME280;10876;49.038;10.608;2023-05-02T06:08:13;99920.00;;;8.79;100.00
21431;BME280;10876;49.038;10.608;2023-05-02T06:10:41;99913.47;;;8.90;100.00
21431;BME280;10876;49.038;10.608;2023-05-02T06:13:08;99904.16;;;8.86;100.00
21431;BME280;10876;49.038;10.608;2023-05-02T06:15:37;99907.72;;;8.92;100.00
21431;BME280;10876;49.038;10.608;2023-05-02T06:18:04;99920.59;;;8.96;100.00
21431;BME280;10876;49.038;10.608;2023-05-02T06:20:31;99916.78;;;9.02;100.00
21431;BME280;10876;49.038;10.608;2023-05-02T06:22:58;99909.13;;;8.99;100.00
21431;BME280;10876;49.038;10.608;2023-05-02T06:25:25;99909.69;;;9.17;100.00
21431;BME280;10876;49.038;10.608;2023-05-02T06:27:52;99912.41;;;9.17;100.00
21431;BME280;10876;49.038;10.608;2023-05-02T06:30:19;99904.22;;;9.17;100.00
21431;BME280;10876;49.038;10.608;2023-05-02T06:32:48;99900.38;;;9.18;100.00
21431;BME280;10876;49.038;10.608;2023-05-02T06:35:15;99886.72;;;9.23;100.00
21431;BME280;10876;49.038;10.608;2023-05-02T06:37:42;99913.50;;;9.46;100.00
21431;BME280;10876;49.038;10.608;2023-05-02T06:40:09;99901.75;;;9.56;100.00
21431;BME280;10876;49.038;10.608;2023-05-02T06:42:38;99896.56;;;9.70;100.00
21431;BME280;10876;49.038;10.608;2023-05-02T06:45:05;99898.44;;;9.69;100.00
21431;BME280;10876;49.038;10.608;2023-05-02T06:47:32;99892.97;;;9.75;100.00
21431;BME280;10876;49.038;10.608;2023-05-02T06:50:01;99868.34;;;9.80;100.00
21431;BME280;10876;49.038;10.608;2023-05-02T06:52:28;99878.72;;;9.93;100.00
21431;BME280;10876;49.038;10.608;2023-05-02T06:54:55;99866.38;;;9.96;100.00
21431;BME280;10876;49.038;10.608;2023-05-02T06:57:23;99850.50;;;10.03;100.00
21431;BME280;10876;49.038;10.608;2023-05-02T06:59:50;99834.06;;;10.03;100.00
21431;BME280;10876;49.038;10.608;2023-05-02T07:02:17;99819.28;;;10.04;100.00
21431;BME280;10876;49.038;10.608;2023-05-02T07:04:44;99813.78;;;10.14;100.00
21431;BME280;10876;49.038;10.608;2023-05-02T07:07:12;99800.63;;;10.16;100.00
21431;BME280;10876;49.038;10.608;2023-05-02T07:09:43;99789.13;;;10.19;100.00
21431;BME280;10876;49.038;10.608;2023-05-02T07:12:09;99774.28;;;10.25;100.00
21431;BME280;10876;49.038;10.608;2023-05-02T07:14:36;99769.09;;;10.19;100.00
21431;BME280;10876;49.038;10.608;2023-05-02T07:17:03;99758.44;;;10.27;100.00
21431;BME280;10876;49.038;10.608;2023-05-02T07:19:30;99742.50;;;10.24;100.00
21431;BME280;10876;49.038;10.608;2023-05-02T07:21:57;99734.03;;;10.26;100.00
21431;BME280;10876;49.038;10.608;2023-05-02T07:24:26;99719.00;;;10.23;100.00
21431;BME280;10876;49.038;10.608;2023-05-02T07:26:53;99710.81;;;10.18;100.00
21431;BME280;10876;49.038;10.608;2023-05-02T07:29:20;99690.56;;;10.19;100.00
21431;BME280;10876;49.038;10.608;2023-05-02T07:31:47;99691.59;;;10.23;100.00
21431;BME280;10876;49.038;10.608;2023-05-02T07:34:13;99673.25;;;10.24;100.00
21431;BME280;10876;49.038;10.608;2023-05-02T07:36:40;99660.91;;;10.31;100.00
21431;BME280;10876;49.038;10.608;2023-05-02T07:39:07;99655.44;;;10.31;100.00
21431;BME280;10876;49.038;10.608;2023-05-02T07:41:36;99640.63;;;10.32;100.00
21431;BME280;10876;49.038;10.608;2023-05-02T07:44:03;99637.28;;;10.41;100.00
21431;BME280;10876;49.038;10.608;2023-05-02T07:46:30;99614.78;;;10.44;100.00
21431;BME280;10876;49.038;10.608;2023-05-02T07:48:57;99618.66;;;10.43;100.00
21431;BME280;10876;49.038;10.608;2023-05-02T07:51:24;99604.34;;;10.51;100.00
21431;BME280;10876;49.038;10.608;2023-05-02T07:53:52;99593.25;;;10.61;100.00
21431;BME280;10876;49.038;10.608;2023-05-02T07:56:23;99578.72;;;10.66;100.00
21431;BME280;10876;49.038;10.608;2023-05-02T07:58:51;99570.19;;;10.67;100.00
21431;BME280;10876;49.038;10.608;2023-05-02T08:01:18;99568.91;;;10.83;100.00
21431;BME280;10876;49.038;10.608;2023-05-02T08:03:45;99554.56;;;10.92;100.00
21431;BME280;10876;49.038;10.608;2023-05-02T08:06:14;99541.03;;;11.00;100.00
21431;BME280;10876;49.038;10.608;2023-05-02T08:08:41;99524.47;;;11.11;100.00
21431;BME280;10876;49.038;10.608;2023-05-02T08:11:08;99521.28;;;11.22;100.00
21431;BME280;10876;49.038;10.608;2023-05-02T08:13:34;99509.06;;;11.34;100.00
21431;BME280;10876;49.038;10.608;2023-05-02T08:16:03;99488.69;;;11.40;100.00
21431;BME280;10876;49.038;10.608;2023-05-02T08:18:31;99476.13;;;11.53;100.00
21431;BME280;10876;49.038;10.608;2023-05-02T08:20:57;99458.34;;;11.50;100.00
21431;BME280;10876;49.038;10.608;2023-05-02T08:23:24;99383.66;;;11.53;100.00
21431;BME280;10876;49.038;10.608;2023-05-02T08:25:52;99367.47;;;11.70;100.00
21431;BME280;10876;49.038;10.608;2023-05-02T08:28:19;99358.09;;;11.71;100.00
21431;BME280;10876;49.038;10.608;2023-05-02T08:30:46;99350.72;;;11.86;100.00
21431;BME280;10876;49.038;10.608;2023-05-02T08:33:15;99329.69;;;11.95;100.00
21431;BME280;10876;49.038;10.608;2023-05-02T08:35:42;99327.84;;;12.18;100.00
21431;BME280;10876;49.038;10.608;2023-05-02T08:38:11;99327.03;;;12.45;100.00
21431;BME280;10876;49.038;10.608;2023-05-02T08:40:38;99320.91;;;12.48;100.00
21431;BME280;10876;49.038;10.608;2023-05-02T08:43:05;99316.75;;;12.73;100.00
21431;BME280;10876;49.038;10.608;2023-05-02T08:45:34;99313.84;;;12.92;100.00
21431;BME280;10876;49.038;10.608;2023-05-02T08:48:06;99317.03;;;13.08;100.00
21431;BME280;10876;49.038;10.608;2023-05-02T08:50:37;99325.22;;;13.22;100.00
21431;BME280;10876;49.038;10.608;2023-05-02T08:53:07;99366.66;;;13.39;100.00
21431;BME280;10876;49.038;10.608;2023-05-02T08:55:36;99366.22;;;13.77;100.00
21431;BME280;10876;49.038;10.608;2023-05-02T08:58:08;99366.22;;;13.77;100.00
21431;BME280;10876;49.038;10.608;2023-05-02T09:00:38;99371.59;;;13.82;100.00
21431;BME280;10876;49.038;10.608;2023-05-02T09:03:16;99376.88;;;13.70;100.00
21431;BME280;10876;49.038;10.608;2023-05-02T09:05:52;99380.16;;;13.49;100.00
21431;BME280;10876;49.038;10.608;2023-05-02T09:08:21;99419.53;;;13.59;100.00
21431;BME280;10876;49.038;10.608;2023-05-02T09:10:49;99453.09;;;13.83;100.00
21431;BME280;10876;49.038;10.608;2023-05-02T09:19:43;99389.47;;;14.33;100.00
21431;BME280;10876;49.038;10.608;2023-05-02T09:22:21;99357.72;;;14.45;100.00
21431;BME280;10876;49.038;10.608;2023-05-02T09:24:53;99340.94;;;14.72;100.00
21431;BME280;10876;49.038;10.608;2023-05-02T09:27:21;99355.53;;;15.33;100.00
21431;BME280;10876;49.038;10.608;2023-05-02T09:29:48;99341.59;;;16.33;100.00
21431;BME280;10876;49.038;10.608;2023-05-02T09:32:15;99348.97;;;15.82;100.00
21431;BME280;10876;49.038;10.608;2023-05-02T09:35:05;99342.34;;;15.74;100.00
21431;BME280;10876;49.038;10.608;2023-05-02T09:37:37;99333.63;;;15.93;100.00
21431;BME280;10876;49.038;10.608;2023-05-02T09:40:05;99322.19;;;15.56;100.00
21431;BME280;10876;49.038;10.608;2023-05-02T09:42:34;99321.16;;;15.22;100.00
21431;BME280;10876;49.038;10.608;2023-05-02T09:45:06;99297.03;;;15.58;100.00
21431;BME280;10876;49.038;10.608;2023-05-02T09:47:33;99281.91;;;16.02;100.00
21431;BME280;10876;49.038;10.608;2023-05-02T09:50:01;99275.09;;;15.52;100.00
21431;BME280;10876;49.038;10.608;2023-05-02T09:52:28;99284.91;;;15.32;100.00
21431;BME280;10876;49.038;10.608;2023-05-02T09:54:57;99277.31;;;15.12;100.00
21431;BME280;10876;49.038;10.608;2023-05-02T09:57:38;99267.88;;;15.13;100.00
21431;BME280;10876;49.038;10.608;2023-05-02T10:00:07;99245.31;;;15.75;100.00
21431;BME280;10876;49.038;10.608;2023-05-02T10:02:34;99216.91;;;15.96;100.00
21431;BME280;10876;49.038;10.608;2023-05-02T10:05:07;99199.72;;;16.95;100.00
21431;BME280;10876;49.038;10.608;2023-05-02T10:07:36;99169.16;;;16.92;100.00
21431;BME280;10876;49.038;10.608;2023-05-02T10:10:06;99159.81;;;16.63;100.00
21431;BME280;10876;49.038;10.608;2023-05-02T10:12:34;99158.94;;;16.50;100.00
21431;BME280;10876;49.038;10.608;2023-05-02T10:15:05;99158.88;;;16.80;100.00
21431;BME280;10876;49.038;10.608;2023-05-02T10:17:39;99139.78;;;16.45;100.00
21431;BME280;10876;49.038;10.608;2023-05-02T10:20:10;99126.16;;;16.61;100.00
21431;BME280;10876;49.038;10.608;2023-05-02T10:22:42;99126.88;;;16.37;100.00
21431;BME280;10876;49.038;10.608;2023-05-02T10:25:12;99124.16;;;16.49;100.00
21431;BME280;10876;49.038;10.608;2023-05-02T10:27:43;99118.69;;;16.74;100.00
21431;BME280;10876;49.038;10.608;2023-05-02T10:30:12;99104.03;;;17.31;100.00
21431;BME280;10876;49.038;10.608;2023-05-02T10:32:39;99094.78;;;16.90;100.00
21431;BME280;10876;49.038;10.608;2023-05-02T10:35:07;99098.72;;;17.01;100.00
21431;BME280;10876;49.038;10.608;2023-05-02T10:37:37;99100.47;;;16.73;100.00
21431;BME280;10876;49.038;10.608;2023-05-02T10:40:09;99101.25;;;16.61;100.00
21431;BME280;10876;49.038;10.608;2023-05-02T10:42:41;99108.50;;;16.53;100.00
21431;BME280;10876;49.038;10.608;2023-05-02T10:45:11;99095.47;;;16.87;100.00
21431;BME280;10876;49.038;10.608;2023-05-02T10:47:39;99097.69;;;17.30;100.00
21431;BME280;10876;49.038;10.608;2023-05-02T10:50:07;99088.00;;;17.24;100.00
21431;BME280;10876;49.038;10.608;2023-05-02T10:52:35;99089.13;;;17.11;100.00
21431;BME280;10876;49.038;10.608;2023-05-02T10:55:13;99082.13;;;17.38;100.00
21431;BME280;10876;49.038;10.608;2023-05-02T11:00:41;99062.72;;;18.31;100.00
21431;BME280;10876;49.038;10.608;2023-05-02T11:03:08;99079.22;;;18.84;100.00
21431;BME280;10876;49.038;10.608;2023-05-02T11:06:05;99069.03;;;18.60;100.00
21431;BME280;10876;49.038;10.608;2023-05-02T11:08:32;99052.31;;;18.28;100.00
21431;BME280;10876;49.038;10.608;2023-05-02T11:13:59;99056.25;;;18.55;100.00
21431;BME280;10876;49.038;10.608;2023-05-02T11:17:08;99064.25;;;18.00;100.00
21431;BME280;10876;49.038;10.608;2023-05-02T11:22:55;99044.75;;;19.01;100.00
21431;BME280;10876;49.038;10.608;2023-05-02T11:25:43;99048.63;;;19.31;100.00
21431;BME280;10876;49.038;10.608;2023-05-02T11:28:38;99038.03;;;18.42;100.00
21431;BME280;10876;49.038;10.608;2023-05-02T11:31:06;99032.06;;;18.56;100.00
21431;BME280;10876;49.038;10.608;2023-05-02T11:33:35;99046.69;;;17.96;100.00
21431;BME280;10876;49.038;10.608;2023-05-02T11:36:03;99048.19;;;18.66;100.00
21431;BME280;10876;49.038;10.608;2023-05-02T11:38:35;99053.25;;;18.04;100.00
21431;BME280;10876;49.038;10.608;2023-05-02T11:41:03;99071.28;;;17.21;100.00
21431;BME280;10876;49.038;10.608;2023-05-02T11:43:30;99089.25;;;17.02;100.00
21431;BME280;10876;49.038;10.608;2023-05-02T11:45:57;99122.38;;;16.65;100.00
21431;BME280;10876;49.038;10.608;2023-05-02T11:48:25;99160.72;;;15.92;100.00
21431;BME280;10876;49.038;10.608;2023-05-02T11:50:58;99192.41;;;15.56;100.00
21431;BME280;10876;49.038;10.608;2023-05-02T11:53:28;99216.38;;;15.35;100.00
21431;BME280;10876;49.038;10.608;2023-05-02T11:55:57;99234.00;;;15.04;100.00
21431;BME280;10876;49.038;10.608;2023-05-02T11:58:26;99243.25;;;15.08;100.00
21431;BME280;10876;49.038;10.608;2023-05-02T12:00:54;99256.19;;;15.16;100.00
21431;BME280;10876;49.038;10.608;2023-05-02T12:03:29;99263.72;;;14.90;100.00
21431;BME280;10876;49.038;10.608;2023-05-02T12:06:08;99273.44;;;14.78;100.00
21431;BME280;10876;49.038;10.608;2023-05-02T12:08:36;99278.81;;;14.75;100.00
21431;BME280;10876;49.038;10.608;2023-05-02T12:11:03;99279.13;;;14.82;100.00
21431;BME280;10876;49.038;10.608;2023-05-02T12:13:31;99297.59;;;15.07;100.00
21431;BME280;10876;49.038;10.608;2023-05-02T12:15:59;99296.38;;;15.52;100.00
21431;BME280;10876;49.038;10.608;2023-05-02T12:18:27;99296.06;;;15.45;100.00
21431;BME280;10876;49.038;10.608;2023-05-02T12:20:54;99306.19;;;15.23;100.00
21431;BME280;10876;49.038;10.608;2023-05-02T12:23:38;99306.53;;;14.96;100.00
21431;BME280;10876;49.038;10.608;2023-05-02T12:26:15;99320.19;;;15.01;100.00
21431;BME280;10876;49.038;10.608;2023-05-02T12:28:47;99318.06;;;14.98;100.00
21431;BME280;10876;49.038;10.608;2023-05-02T12:31:15;99332.81;;;14.84;100.00
21431;BME280;10876;49.038;10.608;2023-05-02T12:33:42;99334.13;;;14.61;100.00
21431;BME280;10876;49.038;10.608;2023-05-02T12:36:09;99337.44;;;14.40;100.00
21431;BME280;10876;49.038;10.608;2023-05-02T12:38:38;99344.28;;;13.94;100.00
21431;BME280;10876;49.038;10.608;2023-05-02T12:41:06;99344.63;;;14.02;100.00
21431;BME280;10876;49.038;10.608;2023-05-02T12:43:44;99359.78;;;13.90;100.00
21431;BME280;10876;49.038;10.608;2023-05-02T12:46:11;99365.25;;;14.13;100.00
21431;BME280;10876;49.038;10.608;2023-05-02T12:48:38;99382.66;;;14.31;100.00
21431;BME280;10876;49.038;10.608;2023-05-02T12:51:05;99373.63;;;14.48;100.00
21431;BME280;10876;49.038;10.608;2023-05-02T12:53:43;99377.00;;;14.45;100.00
21431;BME280;10876;49.038;10.608;2023-05-02T12:56:12;99380.22;;;15.21;100.00
21431;BME280;10876;49.038;10.608;2023-05-02T12:58:42;99368.50;;;15.42;100.00
21431;BME280;10876;49.038;10.608;2023-05-02T13:01:10;99364.09;;;15.75;100.00
21431;BME280;10876;49.038;10.608;2023-05-02T13:03:37;99349.41;;;15.92;100.00
21431;BME280;10876;49.038;10.608;2023-05-02T13:06:05;99334.28;;;16.58;100.00
21431;BME280;10876;49.038;10.608;2023-05-02T13:08:32;99325.19;;;16.99;100.00
21431;BME280;10876;49.038;10.608;2023-05-02T13:11:02;99326.06;;;16.91;100.00
21431;BME280;10876;49.038;10.608;2023-05-02T13:13:29;99319.53;;;16.75;100.00
21431;BME280;10876;49.038;10.608;2023-05-02T13:15:57;99308.59;;;16.57;100.00
21431;BME280;10876;49.038;10.608;2023-05-02T13:18:24;99325.13;;;16.07;100.00
21431;BME280;10876;49.038;10.608;2023-05-02T13:20:52;99338.88;;;15.86;100.00
21431;BME280;10876;49.038;10.608;2023-05-02T13:23:19;99325.00;;;15.39;100.00
21431;BME280;10876;49.038;10.608;2023-05-02T13:25:46;99321.91;;;15.49;100.00
21431;BME280;10876;49.038;10.608;2023-05-02T13:28:14;99326.63;;;15.40;100.00
21431;BME280;10876;49.038;10.608;2023-05-02T13:30:41;99326.97;;;15.29;100.00
21431;BME280;10876;49.038;10.608;2023-05-02T13:33:08;99331.31;;;15.39;100.00
21431;BME280;10876;49.038;10.608;2023-05-02T13:35:35;99320.47;;;15.34;100.00
21431;BME280;10876;49.038;10.608;2023-05-02T13:38:02;99321.13;;;15.40;100.00
21431;BME280;10876;49.038;10.608;2023-05-02T13:40:29;99316.53;;;15.44;100.00
21431;BME280;10876;49.038;10.608;2023-05-02T13:42:56;99315.09;;;15.38;100.00
21431;BME280;10876;49.038;10.608;2023-05-02T13:45:25;99317.81;;;15.55;100.00
21431;BME280;10876;49.038;10.608;2023-05-02T13:47:52;99324.00;;;15.52;100.00
21431;BME280;10876;49.038;10.608;2023-05-02T13:50:19;99310.31;;;15.73;100.00
21431;BME280;10876;49.038;10.608;2023-05-02T13:52:46;99315.72;;;15.99;100.00
21431;BME280;10876;49.038;10.608;2023-05-02T13:55:13;99300.56;;;16.05;100.00
21431;BME280;10876;49.038;10.608;2023-05-02T13:57:40;99299.25;;;16.41;100.00
21431;BME280;10876;49.038;10.608;2023-05-02T14:00:08;99306.59;;;16.37;100.00
21431;BME280;10876;49.038;10.608;2023-05-02T14:02:37;99312.38;;;15.85;100.00
21431;BME280;10876;49.038;10.608;2023-05-02T14:05:05;99331.47;;;16.07;100.00
21431;BME280;10876;49.038;10.608;2023-05-02T14:07:32;99326.75;;;16.08;100.00
21431;BME280;10876;49.038;10.608;2023-05-02T14:09:59;99326.22;;;15.67;100.00
21431;BME280;10876;49.038;10.608;2023-05-02T14:12:26;99347.75;;;15.36;100.00
21431;BME280;10876;49.038;10.608;2023-05-02T14:14:53;99345.50;;;15.20;100.00
21431;BME280;10876;49.038;10.608;2023-05-02T14:17:20;99348.41;;;14.98;100.00